createdAt,value
2022-09-28T00:01:29.411Z,62.52
2022-09-28T00:03:57.077Z,63.20
2022-09-28T00:06:26.840Z,63.02
2022-09-28T00:08:53.524Z,63.17
2022-09-28T00:11:22.711Z,63.49
2022-09-28T00:13:54.264Z,68.75
2022-09-28T00:16:27.521Z,70.30
2022-09-28T00:18:55.135Z,70.62
2022-09-28T00:21:25.011Z,72.00
2022-09-28T00:23:54.060Z,71.22
2022-09-28T00:26:20.666Z,71.30
2022-09-28T00:28:47.279Z,70.85
2022-09-28T00:31:13.926Z,71.97
2022-09-28T00:33:40.541Z,71.97
2022-09-28T00:36:07.298Z,71.63
2022-09-28T00:38:33.894Z,72.80
2022-09-28T00:41:00.539Z,73.26
2022-09-28T00:43:27.433Z,73.86
2022-09-28T00:46:08.991Z,73.35
2022-09-28T00:48:41.884Z,73.75
2022-09-28T00:51:12.726Z,74.44
2022-09-28T00:53:44.293Z,75.18
2022-09-28T00:56:19.888Z,74.68
2022-09-28T00:58:50.785Z,74.32
2022-09-28T01:01:17.862Z,74.13
2022-09-28T01:03:46.069Z,74.71
2022-09-28T01:06:20.842Z,75.10
2022-09-28T01:08:51.649Z,75.86
2022-09-28T01:11:19.647Z,76.77
2022-09-28T01:13:52.340Z,74.35
2022-09-28T01:16:27.796Z,76.32
2022-09-28T01:19:20.521Z,75.14
2022-09-28T01:22:29.076Z,77.07
2022-09-28T01:25:18.786Z,77.24
2022-09-28T01:27:54.451Z,76.58
2022-09-28T01:30:22.031Z,76.91
2022-09-28T01:33:07.113Z,76.99
2022-09-28T01:35:42.946Z,77.64
2022-09-28T01:38:18.216Z,78.17
2022-09-28T01:40:47.668Z,78.14
2022-09-28T01:43:25.782Z,79.13
2022-09-28T01:46:35.056Z,79.94
2022-09-28T01:49:27.569Z,79.79
2022-09-28T01:52:15.740Z,79.66
2022-09-28T01:54:56.919Z,78.97
2022-09-28T01:57:34.244Z,78.15
2022-09-28T02:00:10.134Z,77.69
2022-09-28T02:02:45.296Z,78.33
2022-09-28T02:05:23.661Z,79.96
2022-09-28T02:07:54.632Z,78.33
2022-09-28T02:10:33.215Z,78.65
2022-09-28T02:13:24.238Z,80.16
2022-09-28T02:15:58.384Z,80.59
2022-09-28T02:18:25.045Z,81.09
2022-09-28T02:21:10.912Z,82.51
2022-09-28T02:23:43.928Z,82.57
2022-09-28T02:26:17.375Z,83.13
2022-09-28T02:28:43.966Z,83.73
2022-09-28T02:31:10.603Z,83.25
2022-09-28T02:33:41.117Z,83.86
2022-09-28T02:36:08.226Z,83.73
2022-09-28T02:38:36.893Z,82.59
2022-09-28T02:41:33.732Z,82.47
2022-09-28T02:44:03.306Z,82.23
2022-09-28T02:46:49.466Z,81.75
2022-09-28T02:49:25.347Z,82.71
2022-09-28T02:52:00.137Z,83.26
2022-09-28T02:54:57.691Z,84.66
2022-09-28T02:57:38.903Z,83.75
2022-09-28T03:00:08.590Z,85.75
2022-09-28T03:02:41.589Z,86.02
2022-09-28T03:05:43.554Z,85.35
2022-09-28T03:08:23.594Z,84.53
2022-09-28T03:11:03.976Z,84.62
2022-09-28T03:13:34.398Z,83.13
2022-09-28T03:16:19.804Z,83.47
2022-09-28T03:18:47.707Z,85.43
2022-09-28T03:21:15.724Z,84.70
2022-09-28T03:23:42.816Z,84.56
2022-09-28T03:26:12.623Z,83.16
2022-09-28T03:28:39.549Z,83.95
2022-09-28T03:31:06.747Z,84.43
2022-09-28T03:33:33.465Z,84.96
2022-09-28T03:36:00.274Z,84.46
2022-09-28T03:38:27.075Z,83.00
2022-09-28T03:40:59.580Z,84.94
2022-09-28T03:43:27.648Z,85.81
2022-09-28T03:45:56.377Z,84.35
2022-09-28T03:48:32.557Z,84.03
2022-09-28T03:51:05.193Z,85.73
2022-09-28T03:53:33.668Z,84.56
2022-09-28T03:56:10.842Z,84.65
2022-09-28T03:58:37.457Z,83.54
2022-09-28T04:01:14.168Z,83.67
2022-09-28T04:03:43.302Z,81.60
2022-09-28T04:06:10.331Z,84.26
2022-09-28T04:08:37.041Z,82.59
2022-09-28T04:11:03.612Z,82.09
2022-09-28T04:13:30.781Z,82.18
2022-09-28T04:16:00.248Z,82.20
2022-09-28T04:18:27.529Z,83.14
2022-09-28T04:21:06.979Z,83.88
2022-09-28T04:23:39.009Z,83.82
2022-09-28T04:26:08.314Z,83.71
2022-09-28T04:28:34.896Z,82.31
2022-09-28T04:31:01.480Z,84.16
2022-09-28T04:33:28.048Z,82.72
2022-09-28T04:35:54.741Z,83.54
2022-09-28T04:38:41.481Z,82.07
2022-09-28T04:41:07.934Z,83.29
2022-09-28T04:43:34.705Z,82.67
2022-09-28T04:46:02.894Z,83.85
2022-09-28T04:48:29.739Z,83.17
2022-09-28T04:50:58.427Z,82.51
2022-09-28T04:53:26.674Z,81.91
2022-09-28T04:56:01.271Z,82.90
2022-09-28T04:58:29.265Z,80.65
2022-09-28T05:00:59.858Z,80.32
2022-09-28T05:03:26.697Z,83.10
2022-09-28T05:05:53.603Z,81.95
2022-09-28T05:08:20.567Z,82.45
2022-09-28T05:10:47.234Z,81.53
2022-09-28T05:13:14.904Z,83.47
2022-09-28T05:15:43.112Z,82.48
2022-09-28T05:18:09.756Z,81.72
2022-09-28T05:20:41.363Z,82.16
2022-09-28T05:23:10.810Z,84.51
2022-09-28T05:25:37.651Z,83.75
2022-09-28T05:28:04.636Z,84.47
2022-09-28T05:30:31.266Z,84.29
2022-09-28T05:32:57.850Z,84.00
2022-09-28T05:35:24.693Z,83.10
2022-09-28T05:37:51.575Z,83.86
2022-09-28T05:40:18.303Z,84.16
2022-09-28T05:42:44.929Z,82.94
2022-09-28T05:45:11.535Z,81.79
2022-09-28T05:47:43.017Z,82.82
2022-09-28T05:50:11.074Z,84.09
2022-09-28T05:52:38.385Z,84.31
2022-09-28T05:55:06.411Z,82.72
2022-09-28T05:57:33.265Z,81.69
2022-09-28T06:00:01.013Z,81.55
2022-09-28T06:02:27.657Z,80.44
2022-09-28T06:04:54.256Z,83.48
2022-09-28T06:07:22.238Z,82.72
2022-09-28T06:09:48.979Z,81.35
2022-09-28T06:12:18.686Z,80.27
2022-09-28T06:14:45.546Z,79.77
2022-09-28T06:17:12.523Z,81.85
2022-09-28T06:19:39.296Z,83.90
2022-09-28T06:22:05.867Z,83.40
2022-09-28T06:24:32.448Z,81.63
2022-09-28T06:26:59.177Z,78.82
2022-09-28T06:29:25.826Z,78.22
2022-09-28T06:31:52.696Z,76.25
2022-09-28T06:34:19.502Z,78.57
2022-09-28T06:36:46.076Z,80.86
2022-09-28T06:39:12.745Z,82.01
2022-09-28T06:41:39.348Z,84.95
2022-09-28T06:44:05.914Z,85.99
2022-09-28T06:46:33.928Z,85.53
2022-09-28T06:49:00.561Z,86.00
2022-09-28T06:51:27.209Z,85.79
2022-09-28T06:53:53.853Z,85.22
2022-09-28T06:56:20.480Z,85.33
2022-09-28T06:58:47.940Z,85.66
2022-09-28T07:01:14.694Z,85.13
2022-09-28T07:03:41.411Z,84.71
2022-09-28T07:06:12.191Z,81.89
2022-09-28T07:08:38.949Z,80.16
2022-09-28T07:11:07.508Z,79.35
2022-09-28T07:13:49.614Z,79.07
2022-09-28T07:16:17.274Z,77.42
2022-09-28T07:18:44.097Z,76.77
2022-09-28T07:21:21.855Z,77.55
2022-09-28T07:23:54.440Z,76.05
2022-09-28T07:26:24.202Z,76.89
2022-09-28T07:28:51.645Z,76.14
2022-09-28T07:31:18.289Z,76.31
2022-09-28T07:33:44.937Z,75.29
2022-09-28T07:36:11.516Z,76.11
2022-09-28T07:38:38.079Z,75.19
2022-09-28T07:41:04.735Z,75.57
2022-09-28T07:43:32.128Z,75.89
2022-09-28T07:45:58.779Z,76.35
2022-09-28T07:48:25.655Z,76.16
2022-09-28T07:50:54.957Z,75.99
2022-09-28T07:53:24.191Z,75.43
2022-09-28T07:55:55.840Z,74.93
2022-09-28T07:58:22.686Z,74.65
2022-09-28T08:00:50.252Z,76.44
2022-09-28T08:03:18.744Z,76.22
2022-09-28T08:05:46.225Z,74.54
2022-09-28T08:08:13.216Z,75.65
2022-09-28T08:10:46.266Z,74.19
2022-09-28T08:13:14.060Z,73.63
2022-09-28T08:15:41.315Z,72.66
2022-09-28T08:18:11.281Z,72.96
2022-09-28T08:20:37.959Z,72.54
2022-09-28T08:23:06.579Z,73.67
2022-09-28T08:25:36.644Z,73.92
2022-09-28T08:28:04.110Z,72.68
2022-09-28T08:30:30.884Z,73.73
2022-09-28T08:32:58.366Z,75.69
2022-09-28T08:35:25.204Z,76.55
2022-09-28T08:37:55.482Z,78.56
2022-09-28T08:40:25.336Z,78.13
2022-09-28T08:43:24.993Z,78.47
2022-09-28T08:45:56.817Z,79.47
2022-09-28T08:48:29.935Z,78.63
2022-09-28T08:51:04.894Z,79.35
2022-09-28T08:53:53.191Z,78.91
2022-09-28T08:56:38.588Z,78.54
2022-09-28T08:59:13.411Z,78.43
2022-09-28T09:01:55.993Z,77.07
2022-09-28T09:04:25.930Z,76.39
2022-09-28T09:07:13.884Z,76.48
2022-09-28T09:10:18.423Z,76.57
2022-09-28T09:12:55.574Z,77.85
2022-09-28T09:15:50.875Z,78.16
2022-09-28T09:18:26.173Z,78.20
2022-09-28T09:20:59.118Z,78.95
2022-09-28T09:23:57.533Z,76.83
2022-09-28T09:26:45.590Z,75.98
2022-09-28T09:29:43.516Z,75.69
2022-09-28T09:32:29.847Z,75.57
2022-09-28T09:35:16.766Z,76.37
2022-09-28T09:38:02.116Z,74.87
2022-09-28T09:40:47.871Z,72.40
2022-09-28T09:43:41.544Z,73.28
2022-09-28T09:46:29.757Z,73.05
2022-09-28T09:49:02.448Z,71.25
2022-09-28T09:51:56.867Z,71.58
2022-09-28T09:54:29.483Z,70.20
2022-09-28T09:57:02.432Z,71.52
2022-09-28T09:59:37.755Z,71.53
2022-09-28T10:02:17.481Z,72.47
2022-09-28T10:04:46.971Z,72.01
2022-09-28T10:07:23.530Z,73.38
2022-09-28T10:09:56.827Z,74.67
2022-09-28T10:12:24.906Z,78.24
2022-09-28T10:14:51.953Z,79.63
2022-09-28T10:17:20.144Z,77.69
2022-09-28T10:19:46.881Z,78.08
2022-09-28T10:22:20.485Z,78.19
2022-09-28T10:24:51.427Z,78.35
2022-09-28T10:27:27.728Z,78.85
2022-09-28T10:29:57.086Z,77.97
2022-09-28T10:32:39.443Z,75.86
2022-09-28T10:35:22.178Z,73.88
2022-09-28T10:37:59.748Z,72.86
2022-09-28T10:40:45.397Z,72.41
2022-09-28T10:43:57.415Z,70.50
2022-09-28T10:46:24.831Z,71.24
2022-09-28T10:49:26.696Z,70.29
2022-09-28T10:51:55.505Z,69.24
2022-09-28T10:54:28.318Z,69.46
2022-09-28T10:56:57.857Z,69.11
2022-09-28T10:59:36.980Z,68.28
2022-09-28T11:02:23.873Z,67.29
2022-09-28T11:05:24.061Z,67.30
2022-09-28T11:07:50.744Z,65.91
2022-09-28T11:10:23.910Z,66.16
2022-09-28T11:12:53.929Z,65.63
2022-09-28T11:15:35.212Z,65.31
2022-09-28T11:18:27.636Z,65.80
2022-09-28T11:21:12.882Z,65.24
2022-09-28T11:23:40.038Z,66.99
2022-09-28T11:26:09.228Z,66.53
2022-09-28T11:28:39.000Z,68.80
2022-09-28T11:31:08.475Z,71.08
2022-09-28T11:33:42.062Z,70.41
2022-09-28T11:36:43.127Z,70.80
2022-09-28T11:39:23.386Z,73.14
2022-09-28T11:42:34.656Z,74.98
2022-09-28T11:45:28.039Z,74.90
2022-09-28T11:47:54.579Z,74.11
2022-09-28T11:50:47.489Z,73.90
2022-09-28T11:53:26.728Z,73.32
2022-09-28T11:55:57.128Z,73.41
2022-09-28T11:58:35.432Z,73.36
2022-09-28T12:01:19.028Z,71.02
2022-09-28T12:03:59.864Z,71.31
2022-09-28T12:07:03.580Z,70.85
2022-09-28T12:09:38.802Z,70.74
2022-09-28T12:12:20.387Z,70.62
2022-09-28T12:14:48.106Z,74.13
2022-09-28T12:17:38.824Z,75.94
2022-09-28T12:20:26.096Z,75.54
2022-09-28T12:23:07.959Z,75.69
2022-09-28T12:25:46.558Z,76.08
2022-09-28T12:28:23.675Z,76.40
2022-09-28T12:30:53.632Z,75.97
2022-09-28T12:33:22.998Z,77.04
2022-09-28T12:36:07.082Z,75.37
2022-09-28T12:38:54.138Z,77.24
2022-09-28T12:41:51.102Z,76.58
2022-09-28T12:44:57.155Z,76.88
2022-09-28T12:48:09.042Z,75.97
2022-09-28T12:51:04.632Z,76.41
2022-09-28T12:53:44.888Z,75.84
2022-09-28T12:56:28.879Z,76.51
2022-09-28T12:58:58.072Z,76.89
2022-09-28T13:01:33.448Z,76.17
2022-09-28T13:04:13.413Z,76.60
2022-09-28T13:07:07.584Z,76.77
2022-09-28T13:10:00.905Z,75.37
2022-09-28T13:12:53.662Z,75.04
2022-09-28T13:15:51.922Z,72.48
2022-09-28T13:18:46.097Z,72.27
2022-09-28T13:21:28.703Z,71.52
2022-09-28T13:24:20.644Z,72.80
2022-09-28T13:26:48.358Z,71.87
2022-09-28T13:29:19.353Z,71.48
2022-09-28T13:31:57.823Z,72.34
2022-09-28T13:34:29.284Z,73.30
2022-09-28T13:37:16.067Z,72.84
2022-09-28T13:39:45.364Z,73.03
2022-09-28T13:42:21.842Z,72.04
2022-09-28T13:44:58.629Z,71.43
2022-09-28T13:47:42.305Z,70.63
2022-09-28T13:50:28.768Z,70.36
2022-09-28T13:53:19.575Z,69.81
2022-09-28T13:56:21.823Z,71.05
2022-09-28T13:59:15.034Z,72.02
2022-09-28T14:01:53.375Z,71.92
2022-09-28T14:04:23.246Z,73.29
2022-09-28T14:07:09.358Z,73.95
2022-09-28T14:09:44.329Z,72.82
2022-09-28T14:12:29.413Z,72.47
2022-09-28T14:14:56.608Z,71.14
2022-09-28T14:17:23.124Z,70.82
2022-09-28T14:20:14.980Z,70.74
2022-09-28T14:23:19.142Z,71.16
2022-09-28T14:26:04.213Z,71.09
2022-09-28T14:28:36.754Z,71.40
2022-09-28T14:31:22.747Z,70.57
2022-09-28T14:34:02.229Z,72.60
2022-09-28T14:36:42.660Z,72.18
2022-09-28T14:39:25.988Z,73.15
2022-09-28T14:41:52.685Z,74.41
2022-09-28T14:44:19.533Z,74.49
2022-09-28T14:46:48.000Z,74.97
2022-09-28T14:49:17.397Z,73.89
2022-09-28T14:52:02.056Z,73.48
2022-09-28T14:54:49.155Z,73.45
2022-09-28T14:57:17.446Z,73.63
2022-09-28T14:59:45.602Z,75.26
2022-09-28T15:02:12.133Z,73.85
2022-09-28T15:04:50.458Z,74.50
2022-09-28T15:07:26.257Z,77.61
2022-09-28T15:09:55.484Z,77.20
2022-09-28T15:12:27.288Z,79.12
2022-09-28T15:15:07.552Z,79.56
2022-09-28T15:17:39.771Z,80.94
2022-09-28T15:20:27.453Z,81.66
2022-09-28T15:22:57.309Z,81.35
2022-09-28T15:25:30.314Z,83.44
2022-09-28T15:27:59.861Z,83.40
2022-09-28T15:30:32.004Z,84.50
2022-09-28T15:33:00.888Z,82.52
2022-09-28T15:35:28.084Z,83.25
2022-09-28T15:37:55.369Z,81.17
2022-09-28T15:40:36.998Z,83.61
2022-09-28T15:43:30.508Z,83.50
2022-09-28T15:46:06.082Z,82.21
2022-09-28T15:48:54.154Z,80.42
2022-09-28T15:51:25.638Z,81.23
2022-09-28T15:54:00.134Z,79.77
2022-09-28T15:56:28.148Z,77.47
2022-09-28T15:59:25.135Z,77.65
2022-09-28T16:02:06.370Z,78.66
2022-09-28T16:04:49.410Z,78.10
2022-09-28T16:07:15.951Z,79.47
2022-09-28T16:10:03.748Z,78.92
2022-09-28T16:12:55.937Z,76.46
2022-09-28T16:15:33.702Z,77.52
2022-09-28T16:18:16.258Z,75.79
2022-09-28T16:20:43.120Z,75.25
2022-09-28T16:23:26.677Z,73.88
2022-09-28T16:26:07.806Z,74.72
2022-09-28T16:28:34.778Z,75.90
2022-09-28T16:31:07.394Z,76.32
2022-09-28T16:34:17.287Z,78.86
2022-09-28T16:36:46.372Z,77.26
2022-09-28T16:39:13.648Z,77.42
2022-09-28T16:41:46.024Z,79.87
2022-09-28T16:44:22.976Z,82.21
2022-09-28T16:46:52.255Z,81.86
2022-09-28T16:49:19.093Z,83.17
2022-09-28T16:51:48.583Z,84.08
2022-09-28T16:54:24.217Z,84.45
2022-09-28T16:56:52.856Z,86.35
2022-09-28T16:59:19.603Z,85.88
2022-09-28T17:01:46.407Z,84.00
2022-09-28T17:04:13.034Z,84.77
2022-09-28T17:06:39.687Z,83.58
2022-09-28T17:09:06.294Z,84.19
2022-09-28T17:11:33.110Z,84.11
2022-09-28T17:13:59.744Z,85.65
2022-09-28T17:17:02.660Z,83.70
2022-09-28T17:19:24.943Z,84.60
2022-09-28T17:21:52.665Z,85.33
2022-09-28T17:24:20.249Z,85.31
2022-09-28T17:26:50.696Z,83.46
2022-09-28T17:29:18.654Z,82.57
2022-09-28T17:31:47.016Z,83.03
2022-09-28T17:34:15.465Z,81.04
2022-09-28T17:36:44.378Z,81.65
2022-09-28T17:39:15.885Z,81.17
2022-09-28T17:41:42.715Z,80.90
2022-09-28T17:44:12.714Z,81.20
2022-09-28T17:46:43.838Z,80.42
2022-09-28T17:49:13.288Z,79.47
2022-09-28T17:51:41.293Z,78.91
2022-09-28T17:54:08.851Z,77.50
2022-09-28T17:56:36.323Z,78.65
2022-09-28T17:59:10.469Z,77.30
2022-09-28T18:01:39.224Z,77.79
2022-09-28T18:04:08.974Z,76.95
2022-09-28T18:06:36.391Z,78.11
2022-09-28T18:09:04.501Z,77.91
2022-09-28T18:11:33.255Z,77.37
2022-09-28T18:14:00.408Z,76.61
2022-09-28T18:16:27.748Z,75.38
2022-09-28T18:18:54.730Z,76.16
2022-09-28T18:21:21.323Z,73.73
2022-09-28T18:23:47.954Z,73.49
2022-09-28T18:26:15.469Z,74.35
2022-09-28T18:28:42.590Z,75.24
2022-09-28T18:31:15.322Z,76.03
2022-09-28T18:33:42.254Z,77.63
2022-09-28T18:36:08.926Z,76.00
2022-09-28T18:38:36.660Z,74.78
2022-09-28T18:41:10.419Z,78.39
2022-09-28T18:43:37.230Z,76.33
2022-09-28T18:46:11.326Z,76.29
2022-09-28T18:48:39.934Z,78.27
2022-09-28T18:51:11.914Z,76.84
2022-09-28T18:53:41.321Z,77.03
2022-09-28T18:56:11.139Z,76.00
2022-09-28T18:58:39.788Z,75.91
2022-09-28T19:01:31.291Z,77.39
2022-09-28T19:04:00.570Z,75.31
2022-09-28T19:06:28.191Z,75.12
2022-09-28T19:08:56.154Z,75.18
2022-09-28T19:11:24.365Z,75.85
2022-09-28T19:13:55.193Z,75.52
2022-09-28T19:16:25.434Z,76.17
2022-09-28T19:18:52.316Z,75.19
2022-09-28T19:21:21.201Z,75.07
2022-09-28T19:24:01.227Z,74.72
2022-09-28T19:26:30.306Z,75.83
2022-09-28T19:29:00.090Z,73.95
2022-09-28T19:31:28.445Z,74.24
2022-09-28T19:33:55.036Z,73.83
2022-09-28T19:36:23.660Z,70.63
2022-09-28T19:38:52.188Z,71.40
2022-09-28T19:41:21.938Z,73.73
2022-09-28T19:43:48.695Z,73.50
2022-09-28T19:46:15.348Z,74.19
2022-09-28T19:48:41.960Z,74.85
2022-09-28T19:51:09.543Z,75.26
2022-09-28T19:53:39.215Z,73.51
2022-09-28T19:56:05.872Z,73.47
2022-09-28T19:58:36.479Z,75.07
2022-09-28T20:01:07.038Z,75.48
2022-09-28T20:03:34.932Z,76.88
2022-09-28T20:06:02.316Z,76.70
2022-09-28T20:08:29.563Z,76.51
2022-09-28T20:10:58.385Z,77.12
2022-09-28T20:13:31.437Z,77.34
2022-09-28T20:16:09.393Z,76.09
2022-09-28T20:18:39.615Z,76.07
2022-09-28T20:21:09.143Z,76.28
2022-09-28T20:23:36.005Z,76.14
2022-09-28T20:26:07.332Z,75.42
2022-09-28T20:28:33.912Z,78.56
2022-09-28T20:31:05.417Z,78.87
2022-09-28T20:33:34.188Z,78.80
2022-09-28T20:36:08.044Z,78.26
2022-09-28T20:38:35.143Z,77.88
2022-09-28T20:41:01.979Z,76.64
2022-09-28T20:43:29.082Z,75.72
2022-09-28T20:45:56.381Z,78.80
2022-09-28T20:48:23.001Z,80.99
2022-09-28T20:51:13.431Z,82.96
2022-09-28T20:53:43.121Z,81.73
2022-09-28T20:56:18.761Z,79.32
2022-09-28T20:58:45.414Z,76.64
2022-09-28T21:01:15.575Z,76.08
2022-09-28T21:03:48.860Z,75.25
2022-09-28T21:06:18.268Z,74.44
2022-09-28T21:08:46.069Z,74.70
2022-09-28T21:11:14.014Z,75.65
2022-09-28T21:13:41.734Z,75.80
2022-09-28T21:16:14.795Z,74.52
2022-09-28T21:18:42.047Z,75.45
2022-09-28T21:21:17.038Z,73.73
2022-09-28T21:23:44.552Z,73.25
2022-09-28T21:26:16.054Z,73.85
2022-09-28T21:28:42.630Z,75.42
2022-09-28T21:31:12.019Z,74.10
2022-09-28T21:33:38.931Z,73.69
2022-09-28T21:36:07.949Z,72.35
2022-09-28T21:38:34.895Z,75.04
2022-09-28T21:41:01.757Z,75.31
2022-09-28T21:43:30.063Z,73.55
2022-09-28T21:45:57.790Z,72.07
2022-09-28T21:48:27.150Z,72.53
2022-09-28T21:50:55.702Z,73.23
2022-09-28T21:53:23.916Z,71.63
2022-09-28T21:55:54.939Z,74.77
2022-09-28T21:58:23.846Z,75.13
2022-09-28T22:01:02.314Z,75.88
2022-09-28T22:03:30.160Z,77.92
2022-09-28T22:05:56.970Z,78.58
2022-09-28T22:08:24.955Z,78.60
2022-09-28T22:10:59.065Z,75.40
2022-09-28T22:13:25.697Z,75.70
2022-09-28T22:15:53.623Z,76.96
2022-09-28T22:18:20.465Z,75.43
2022-09-28T22:20:47.044Z,75.25
2022-09-28T22:23:13.725Z,75.78
2022-09-28T22:25:40.344Z,75.08
2022-09-28T22:28:06.945Z,74.76
2022-09-28T22:30:34.586Z,75.59
2022-09-28T22:33:03.585Z,76.80
2022-09-28T22:35:30.154Z,77.80
2022-09-28T22:37:59.082Z,77.49
2022-09-28T22:40:25.886Z,76.81
2022-09-28T22:42:52.547Z,78.33
2022-09-28T22:45:19.395Z,78.51
2022-09-28T22:47:45.947Z,76.87
2022-09-28T22:50:12.530Z,78.93
2022-09-28T22:52:39.144Z,76.73
2022-09-28T22:55:07.067Z,76.51
2022-09-28T22:57:33.623Z,77.33
2022-09-28T23:00:00.331Z,77.75
2022-09-28T23:02:26.982Z,77.62
2022-09-28T23:04:53.585Z,77.01
2022-09-28T23:07:20.162Z,76.88
2022-09-28T23:09:46.833Z,76.57
2022-09-28T23:12:13.398Z,77.21
2022-09-28T23:14:39.977Z,76.55
2022-09-28T23:17:06.574Z,77.73
2022-09-28T23:19:33.256Z,76.97
2022-09-28T23:21:59.813Z,77.12
2022-09-28T23:24:26.394Z,76.41
2022-09-28T23:26:52.968Z,77.74
2022-09-28T23:29:22.430Z,77.85
2022-09-28T23:31:50.418Z,79.40
2022-09-28T23:34:17.239Z,77.76
2022-09-28T23:36:43.963Z,76.88
2022-09-28T23:39:10.707Z,78.08
2022-09-28T23:41:37.732Z,78.75
2022-09-28T23:44:04.749Z,78.02
2022-09-28T23:46:31.412Z,77.56
2022-09-28T23:48:58.036Z,77.89
2022-09-28T23:51:24.637Z,78.49
2022-09-28T23:53:51.244Z,78.10
2022-09-28T23:56:18.072Z,79.24
2022-09-28T23:58:44.689Z,78.79
